Terminal Aerodrome Forecast
Issued by NWS Fort Wayne, IN

Home | Current Version | Previous Version | Text Only | Print | Product List | Glossary Off
Versions: 1 2 3 4 5 6 7 8 9 10 11 12 13 14 15 16 17 18 19

000
FTUS43 KIWX 161600 AAA
TAFFWA
TAF AMD
KFWA 161619Z 1616/1712 20006KT 3SM -RA BR VCSH OVC015
     FM161900 21006KT 6SM BR BKN020
     FM170800 30004KT P6SM SCT030=

USA.gov is the U.S. government's official web portal to all federal, state and local government web resources and services.